Terminal Aerodrome Forecast
Issued by NWS

Home | Current Version | Previous Version | Text Only | Print | Product List | Glossary On
Versions: 1 2 3 4 5 6 7 8 9 10 11 12 13 14 15 16 17 18 19 20 21
000
FTUS43 KLSX 030900 AAA
TAFUIN
TAF AMD
KUIN 030911Z 0309/0406 16011KT 4SM -FZDZ BR OVC018
     FM031300 17012KT P6SM OVC008
     FM031700 22015G23KT P6SM OVC010
     FM032100 28012KT P6SM OVC012
     FM040300 34015G22KT P6SM BKN120=

USA.gov is the U.S. government's official web portal to all federal, state and local government web resources and services.